Bedford, Ohio
Current Conditions -  °F | °C
As of 5:53 AM on Saturday 25 Oct 2014 (Local Time) from KBKL Reporting Station
Broken Clouds Broken Clouds  
Wind Chill: 54°   Ceiling: 4000
Heat Index: 54°   Visibility: 10mi
Dew Point: 45°   Wind: 14mph
Humidity: 72%   Direction: 230°SW
Pressure: 29.91"   Gusts: NA
Location:  41.4°N, 81.54°W
Report Text: KBKL 250953Z AUTO 23012KT 10SM BKN040 12/07 A2991 RMK AO2 SLP128 T01220072
Loading
Personal Weather Stations






























Interactive Weather Map
Tropical Storm Tracking
New forecast layout! Learn more

10-Day Weather Forecast

Advertisements
Track Severe Weather on mobile